sensor_id;sensor_type;location;lat;lon;timestamp;pressure;altitude;pressure_sealevel;temperature;humidity
71107;BME280;58763;47.982;11.516;2023-04-10T00:00:08;94775.19;;;3.92;67.48
71107;BME280;58763;47.982;11.516;2023-04-10T00:02:34;94772.16;;;4.00;67.61
71107;BME280;58763;47.982;11.516;2023-04-10T00:05:03;94764.84;;;4.07;67.17
71107;BME280;58763;47.982;11.516;2023-04-10T00:07:28;94762.88;;;4.14;66.98
71107;BME280;58763;47.982;11.516;2023-04-10T00:09:54;94774.53;;;4.19;66.59
71107;BME280;58763;47.982;11.516;2023-04-10T00:12:20;94774.28;;;4.21;66.86
71107;BME280;58763;47.982;11.516;2023-04-10T00:14:45;94777.41;;;4.41;66.65
71107;BME280;58763;47.982;11.516;2023-04-10T00:17:11;94780.47;;;4.33;66.45
71107;BME280;58763;47.982;11.516;2023-04-10T00:19:36;94772.19;;;4.35;66.42
71107;BME280;58763;47.982;11.516;2023-04-10T00:22:03;94772.75;;;4.25;66.67
71107;BME280;58763;47.982;11.516;2023-04-10T00:24:28;94775.09;;;4.33;66.05
71107;BME280;58763;47.982;11.516;2023-04-10T00:26:54;94771.03;;;4.31;66.07
71107;BME280;58763;47.982;11.516;2023-04-10T00:29:21;94765.31;;;4.27;65.75
71107;BME280;58763;47.982;11.516;2023-04-10T00:31:46;94764.84;;;4.30;65.88
71107;BME280;58763;47.982;11.516;2023-04-10T00:34:12;94761.16;;;4.31;65.75
71107;BME280;58763;47.982;11.516;2023-04-10T00:36:38;94766.50;;;4.31;65.34
71107;BME280;58763;47.982;11.516;2023-04-10T00:39:03;94756.13;;;4.11;65.76
71107;BME280;58763;47.982;11.516;2023-04-10T00:41:29;94756.94;;;4.12;65.76
71107;BME280;58763;47.982;11.516;2023-04-10T00:43:55;94752.28;;;4.07;65.73
71107;BME280;58763;47.982;11.516;2023-04-10T00:46:22;94754.38;;;4.05;65.79
71107;BME280;58763;47.982;11.516;2023-04-10T00:48:48;94750.88;;;4.05;65.92
71107;BME280;58763;47.982;11.516;2023-04-10T00:51:14;94745.66;;;4.10;65.55
71107;BME280;58763;47.982;11.516;2023-04-10T00:53:40;94737.38;;;4.00;65.42
71107;BME280;58763;47.982;11.516;2023-04-10T00:56:06;94745.28;;;3.95;65.50
71107;BME280;58763;47.982;11.516;2023-04-10T00:58:31;94744.94;;;3.91;65.30
71107;BME280;58763;47.982;11.516;2023-04-10T01:00:57;94740.41;;;3.80;66.16
71107;BME280;58763;47.982;11.516;2023-04-10T01:03:23;94740.16;;;3.82;65.96
71107;BME280;58763;47.982;11.516;2023-04-10T01:06:15;94740.16;;;3.82;65.72
71107;BME280;58763;47.982;11.516;2023-04-10T01:14:25;94732.41;;;3.50;67.12
71107;BME280;58763;47.982;11.516;2023-04-10T01:17:30;94733.06;;;3.34;67.61
71107;BME280;58763;47.982;11.516;2023-04-10T01:20:06;94729.56;;;3.34;67.71
71107;BME280;58763;47.982;11.516;2023-04-10T01:22:41;94731.66;;;3.32;67.60
71107;BME280;58763;47.982;11.516;2023-04-10T01:25:35;94738.16;;;3.24;68.06
71107;BME280;58763;47.982;11.516;2023-04-10T01:31:05;94729.50;;;3.40;67.78
71107;BME280;58763;47.982;11.516;2023-04-10T01:33:48;94724.72;;;3.42;67.39
71107;BME280;58763;47.982;11.516;2023-04-10T01:36:23;94721.91;;;3.37;67.73
71107;BME280;58763;47.982;11.516;2023-04-10T01:38:52;94724.00;;;3.35;67.81
71107;BME280;58763;47.982;11.516;2023-04-10T01:41:19;94721.91;;;3.37;68.29
71107;BME280;58763;47.982;11.516;2023-04-10T01:43:50;94716.13;;;3.40;68.42
71107;BME280;58763;47.982;11.516;2023-04-10T01:46:18;94717.22;;;3.21;68.59
71107;BME280;58763;47.982;11.516;2023-04-10T01:48:46;94710.22;;;3.20;68.78
71107;BME280;58763;47.982;11.516;2023-04-10T01:51:12;94714.09;;;3.24;68.17
71107;BME280;58763;47.982;11.516;2023-04-10T01:53:39;94704.78;;;3.27;68.05
71107;BME280;58763;47.982;11.516;2023-04-10T01:56:07;94712.13;;;3.31;67.64
71107;BME280;58763;47.982;11.516;2023-04-10T01:58:33;94701.91;;;3.28;67.90
71107;BME280;58763;47.982;11.516;2023-04-10T02:00:59;94703.94;;;3.44;66.95
71107;BME280;58763;47.982;11.516;2023-04-10T02:03:24;94708.09;;;3.40;66.74
71107;BME280;58763;47.982;11.516;2023-04-10T02:06:00;94700.09;;;3.40;66.54
71107;BME280;58763;47.982;11.516;2023-04-10T02:08:33;94697.50;;;3.45;66.11
71107;BME280;58763;47.982;11.516;2023-04-10T02:11:14;94697.50;;;3.34;66.08
71107;BME280;58763;47.982;11.516;2023-04-10T02:13:42;94698.50;;;3.21;66.38
71107;BME280;58763;47.982;11.516;2023-04-10T02:16:08;94699.75;;;3.07;66.96
71107;BME280;58763;47.982;11.516;2023-04-10T02:18:35;94704.66;;;3.10;66.59
71107;BME280;58763;47.982;11.516;2023-04-10T02:21:02;94698.56;;;3.03;67.10
71107;BME280;58763;47.982;11.516;2023-04-10T02:23:28;94704.66;;;3.10;67.01
71107;BME280;58763;47.982;11.516;2023-04-10T02:25:54;94707.75;;;3.07;66.95
71107;BME280;58763;47.982;11.516;2023-04-10T02:28:22;94703.91;;;3.03;66.70
71107;BME280;58763;47.982;11.516;2023-04-10T02:30:48;94692.31;;;3.09;66.28
71107;BME280;58763;47.982;11.516;2023-04-10T02:33:13;94704.22;;;2.95;66.64
71107;BME280;58763;47.982;11.516;2023-04-10T02:35:39;94697.84;;;2.96;66.61
71107;BME280;58763;47.982;11.516;2023-04-10T02:38:04;94707.63;;;3.02;66.18
71107;BME280;58763;47.982;11.516;2023-04-10T02:40:29;94707.47;;;2.97;66.12
71107;BME280;58763;47.982;11.516;2023-04-10T02:42:55;94703.78;;;2.98;66.09
71107;BME280;58763;47.982;11.516;2023-04-10T02:45:20;94709.56;;;2.95;66.81
71107;BME280;58763;47.982;11.516;2023-04-10T02:47:46;94702.38;;;2.96;66.27
71107;BME280;58763;47.982;11.516;2023-04-10T02:50:11;94705.94;;;2.90;66.29
71107;BME280;58763;47.982;11.516;2023-04-10T02:52:37;94710.00;;;2.92;65.43
71107;BME280;58763;47.982;11.516;2023-04-10T02:55:03;94697.50;;;2.74;66.22
71107;BME280;58763;47.982;11.516;2023-04-10T02:57:28;94703.81;;;2.80;66.27
71107;BME280;58763;47.982;11.516;2023-04-10T02:59:54;94698.59;;;2.85;66.76
71107;BME280;58763;47.982;11.516;2023-04-10T03:02:20;94706.59;;;2.85;66.97
71107;BME280;58763;47.982;11.516;2023-04-10T03:04:45;94694.59;;;2.76;67.10
71107;BME280;58763;47.982;11.516;2023-04-10T03:07:11;94693.28;;;2.67;67.60
71107;BME280;58763;47.982;11.516;2023-04-10T03:09:36;94692.03;;;2.69;67.19
71107;BME280;58763;47.982;11.516;2023-04-10T03:12:02;94686.69;;;2.69;67.38
71107;BME280;58763;47.982;11.516;2023-04-10T03:14:27;94692.16;;;2.74;67.29
71107;BME280;58763;47.982;11.516;2023-04-10T03:16:53;94689.16;;;2.83;66.61
71107;BME280;58763;47.982;11.516;2023-04-10T03:19:18;94684.09;;;2.63;66.84
71107;BME280;58763;47.982;11.516;2023-04-10T03:21:45;94682.63;;;2.49;67.96
71107;BME280;58763;47.982;11.516;2023-04-10T03:24:11;94687.31;;;2.35;68.88
71107;BME280;58763;47.982;11.516;2023-04-10T03:26:36;94687.25;;;2.24;69.82
71107;BME280;58763;47.982;11.516;2023-04-10T03:29:02;94683.09;;;2.28;69.86
71107;BME280;58763;47.982;11.516;2023-04-10T03:31:28;94684.72;;;2.29;69.77
71107;BME280;58763;47.982;11.516;2023-04-10T03:33:53;94688.50;;;2.21;69.96
71107;BME280;58763;47.982;11.516;2023-04-10T03:36:19;94683.00;;;2.16;69.97
71107;BME280;58763;47.982;11.516;2023-04-10T03:38:44;94699.00;;;2.34;69.38
71107;BME280;58763;47.982;11.516;2023-04-10T03:41:10;94695.16;;;2.48;68.88
71107;BME280;58763;47.982;11.516;2023-04-10T03:43:35;94686.72;;;2.51;68.82
71107;BME280;58763;47.982;11.516;2023-04-10T03:46:01;94689.00;;;2.48;68.65
71107;BME280;58763;47.982;11.516;2023-04-10T03:48:26;94697.00;;;2.48;68.20
71107;BME280;58763;47.982;11.516;2023-04-10T03:50:53;94688.66;;;2.44;67.75
71107;BME280;58763;47.982;11.516;2023-04-10T03:53:19;94691.50;;;2.43;68.23
71107;BME280;58763;47.982;11.516;2023-04-10T03:55:44;94692.56;;;2.42;67.65
71107;BME280;58763;47.982;11.516;2023-04-10T03:58:10;94702.66;;;2.40;67.74
71107;BME280;58763;47.982;11.516;2023-04-10T04:00:36;94702.41;;;2.41;67.46
71107;BME280;58763;47.982;11.516;2023-04-10T04:03:02;94694.66;;;2.40;67.08
71107;BME280;58763;47.982;11.516;2023-04-10T04:05:30;94701.25;;;2.37;67.15
71107;BME280;58763;47.982;11.516;2023-04-10T04:07:55;94702.34;;;2.30;66.98
71107;BME280;58763;47.982;11.516;2023-04-10T04:10:21;94704.75;;;2.38;66.06
71107;BME280;58763;47.982;11.516;2023-04-10T04:12:46;94695.84;;;2.26;65.25
71107;BME280;58763;47.982;11.516;2023-04-10T04:15:12;94695.53;;;2.16;65.85
71107;BME280;58763;47.982;11.516;2023-04-10T04:17:37;94696.41;;;2.09;66.31
71107;BME280;58763;47.982;11.516;2023-04-10T04:20:04;94694.91;;;1.95;67.16
71107;BME280;58763;47.982;11.516;2023-04-10T04:22:29;94695.50;;;1.97;67.90
71107;BME280;58763;47.982;11.516;2023-04-10T04:24:55;94691.28;;;1.90;70.73
71107;BME280;58763;47.982;11.516;2023-04-10T04:27:20;94692.75;;;1.86;71.76
71107;BME280;58763;47.982;11.516;2023-04-10T04:29:47;94694.22;;;1.82;72.15
71107;BME280;58763;47.982;11.516;2023-04-10T04:32:13;94701.66;;;1.73;72.22
71107;BME280;58763;47.982;11.516;2023-04-10T04:34:39;94704.50;;;1.78;72.52
71107;BME280;58763;47.982;11.516;2023-04-10T04:37:04;94703.69;;;1.78;72.20
71107;BME280;58763;47.982;11.516;2023-04-10T04:39:30;94708.97;;;1.84;72.09
71107;BME280;58763;47.982;11.516;2023-04-10T04:41:55;94698.44;;;1.89;72.04
71107;BME280;58763;47.982;11.516;2023-04-10T04:44:21;94700.41;;;2.00;71.54
71107;BME280;58763;47.982;11.516;2023-04-10T04:46:46;94708.53;;;2.05;71.49
71107;BME280;58763;47.982;11.516;2023-04-10T04:49:12;94706.09;;;2.04;71.35
71107;BME280;58763;47.982;11.516;2023-04-10T04:51:37;94713.25;;;2.10;71.58
71107;BME280;58763;47.982;11.516;2023-04-10T04:54:03;94707.44;;;2.13;71.61
71107;BME280;58763;47.982;11.516;2023-04-10T04:56:29;94707.84;;;2.17;71.32
71107;BME280;58763;47.982;11.516;2023-04-10T04:58:55;94708.88;;;2.16;70.88
71107;BME280;58763;47.982;11.516;2023-04-10T05:01:20;94709.84;;;2.21;70.66
71107;BME280;58763;47.982;11.516;2023-04-10T05:03:46;94707.91;;;2.28;70.48
71107;BME280;58763;47.982;11.516;2023-04-10T05:06:11;94714.19;;;2.34;70.05
71107;BME280;58763;47.982;11.516;2023-04-10T05:08:37;94711.03;;;2.25;69.93
71107;BME280;58763;47.982;11.516;2023-04-10T05:11:02;94717.03;;;2.39;69.14
71107;BME280;58763;47.982;11.516;2023-04-10T05:13:27;94716.66;;;2.35;69.06
71107;BME280;58763;47.982;11.516;2023-04-10T05:15:53;94717.94;;;2.33;69.48
71107;BME280;58763;47.982;11.516;2023-04-10T05:18:18;94714.44;;;2.32;69.01
71107;BME280;58763;47.982;11.516;2023-04-10T05:20:48;94713.34;;;2.40;69.28
71107;BME280;58763;47.982;11.516;2023-04-10T05:23:14;94716.16;;;2.45;69.18
71107;BME280;58763;47.982;11.516;2023-04-10T05:25:40;94713.91;;;2.42;69.29
71107;BME280;58763;47.982;11.516;2023-04-10T05:28:06;94701.84;;;2.39;69.81
71107;BME280;58763;47.982;11.516;2023-04-10T05:30:31;94698.56;;;2.37;69.87
71107;BME280;58763;47.982;11.516;2023-04-10T05:32:57;94705.41;;;2.33;69.93
71107;BME280;58763;47.982;11.516;2023-04-10T05:35:22;94708.28;;;2.32;70.43
71107;BME280;58763;47.982;11.516;2023-04-10T05:37:48;94708.88;;;2.34;70.54
71107;BME280;58763;47.982;11.516;2023-04-10T05:40:13;94717.03;;;2.39;70.24
71107;BME280;58763;47.982;11.516;2023-04-10T05:42:39;94714.16;;;2.40;70.57
71107;BME280;58763;47.982;11.516;2023-04-10T05:45:05;94712.59;;;2.51;70.22
71107;BME280;58763;47.982;11.516;2023-04-10T05:47:30;94717.69;;;2.52;70.58
71107;BME280;58763;47.982;11.516;2023-04-10T05:49:56;94719.69;;;2.57;70.44
71107;BME280;58763;47.982;11.516;2023-04-10T05:52:21;94722.50;;;2.62;70.57
71107;BME280;58763;47.982;11.516;2023-04-10T05:54:47;94721.31;;;2.58;71.11
71107;BME280;58763;47.982;11.516;2023-04-10T05:57:12;94721.69;;;2.61;71.56
71107;BME280;58763;47.982;11.516;2023-04-10T05:59:38;94723.75;;;2.59;72.19
71107;BME280;58763;47.982;11.516;2023-04-10T06:02:03;94732.34;;;2.61;72.94
71107;BME280;58763;47.982;11.516;2023-04-10T06:04:28;94731.63;;;2.72;72.82
71107;BME280;58763;47.982;11.516;2023-04-10T06:06:54;94725.31;;;2.85;72.64
71107;BME280;58763;47.982;11.516;2023-04-10T06:09:19;94725.63;;;2.77;73.11
71107;BME280;58763;47.982;11.516;2023-04-10T06:11:45;94730.63;;;2.85;73.14
71107;BME280;58763;47.982;11.516;2023-04-10T06:14:10;94741.69;;;2.89;73.39
71107;BME280;58763;47.982;11.516;2023-04-10T06:16:36;94735.69;;;2.93;73.58
71107;BME280;58763;47.982;11.516;2023-04-10T06:19:01;94736.13;;;2.90;73.71
71107;BME280;58763;47.982;11.516;2023-04-10T06:21:27;94746.66;;;3.03;73.74
71107;BME280;58763;47.982;11.516;2023-04-10T06:23:52;94741.38;;;3.15;73.26
71107;BME280;58763;47.982;11.516;2023-04-10T06:26:18;94742.19;;;3.27;72.82
71107;BME280;58763;47.982;11.516;2023-04-10T06:28:44;94740.16;;;3.29;72.92
71107;BME280;58763;47.982;11.516;2023-04-10T06:31:09;94740.34;;;3.27;72.94
71107;BME280;58763;47.982;11.516;2023-04-10T06:33:35;94728.28;;;3.36;73.16
71107;BME280;58763;47.982;11.516;2023-04-10T06:36:01;94724.25;;;3.45;72.94
71107;BME280;58763;47.982;11.516;2023-04-10T06:38:28;94722.56;;;3.63;72.75
71107;BME280;58763;47.982;11.516;2023-04-10T06:40:53;94723.63;;;3.73;72.23
71107;BME280;58763;47.982;11.516;2023-04-10T06:43:19;94718.75;;;3.82;71.91
71107;BME280;58763;47.982;11.516;2023-04-10T06:45:45;94723.88;;;4.06;72.01
71107;BME280;58763;47.982;11.516;2023-04-10T06:48:10;94723.44;;;4.09;71.24
71107;BME280;58763;47.982;11.516;2023-04-10T06:50:36;94725.97;;;4.04;72.06
71107;BME280;58763;47.982;11.516;2023-04-10T06:53:01;94712.25;;;4.24;71.67
71107;BME280;58763;47.982;11.516;2023-04-10T06:55:27;94716.91;;;4.29;72.32
71107;BME280;58763;47.982;11.516;2023-04-10T06:57:53;94715.38;;;4.56;71.81
71107;BME280;58763;47.982;11.516;2023-04-10T07:00:21;94706.56;;;4.83;71.09
71107;BME280;58763;47.982;11.516;2023-04-10T07:02:46;94705.16;;;5.21;69.62
71107;BME280;58763;47.982;11.516;2023-04-10T07:05:12;94707.44;;;5.57;68.97
71107;BME280;58763;47.982;11.516;2023-04-10T07:07:38;94707.41;;;5.85;68.15
71107;BME280;58763;47.982;11.516;2023-04-10T07:10:04;94701.34;;;6.28;65.89
71107;BME280;58763;47.982;11.516;2023-04-10T07:12:30;94696.22;;;6.43;65.29
71107;BME280;58763;47.982;11.516;2023-04-10T07:14:55;94700.94;;;6.53;63.83
71107;BME280;58763;47.982;11.516;2023-04-10T07:17:21;94696.81;;;6.67;63.79
71107;BME280;58763;47.982;11.516;2023-04-10T07:19:46;94700.44;;;6.77;61.34
71107;BME280;58763;47.982;11.516;2023-04-10T07:22:12;94698.94;;;6.65;60.32
71107;BME280;58763;47.982;11.516;2023-04-10T07:24:39;94700.72;;;6.97;60.18
71107;BME280;58763;47.982;11.516;2023-04-10T07:27:04;94702.81;;;6.95;61.36
71107;BME280;58763;47.982;11.516;2023-04-10T07:29:30;94710.41;;;7.47;61.77
71107;BME280;58763;47.982;11.516;2023-04-10T07:31:55;94710.06;;;7.97;60.71
71107;BME280;58763;47.982;11.516;2023-04-10T07:34:21;94703.34;;;8.26;57.59
71107;BME280;58763;47.982;11.516;2023-04-10T07:36:47;94708.09;;;8.51;56.64
71107;BME280;58763;47.982;11.516;2023-04-10T07:39:12;94702.78;;;8.61;54.85
71107;BME280;58763;47.982;11.516;2023-04-10T07:41:38;94707.94;;;8.67;55.53
71107;BME280;58763;47.982;11.516;2023-04-10T07:44:03;94711.25;;;8.79;55.03
71107;BME280;58763;47.982;11.516;2023-04-10T07:46:29;94714.00;;;8.94;55.37
71107;BME280;58763;47.982;11.516;2023-04-10T07:48:54;94709.50;;;9.05;53.41
71107;BME280;58763;47.982;11.516;2023-04-10T07:51:20;94701.78;;;8.77;52.52
71107;BME280;58763;47.982;11.516;2023-04-10T07:53:46;94711.63;;;8.51;51.72
71107;BME280;58763;47.982;11.516;2023-04-10T07:56:16;94720.47;;;8.15;52.63
71107;BME280;58763;47.982;11.516;2023-04-10T07:58:42;94714.56;;;7.86;53.56
71107;BME280;58763;47.982;11.516;2023-04-10T08:01:08;94704.56;;;7.82;55.62
71107;BME280;58763;47.982;11.516;2023-04-10T08:03:38;94714.19;;;7.78;54.19
71107;BME280;58763;47.982;11.516;2023-04-10T08:06:03;94708.88;;;7.83;54.93
71107;BME280;58763;47.982;11.516;2023-04-10T08:08:29;94714.53;;;8.13;54.57
71107;BME280;58763;47.982;11.516;2023-04-10T08:10:55;94711.72;;;8.29;53.90
71107;BME280;58763;47.982;11.516;2023-04-10T08:13:20;94707.66;;;8.27;55.24
71107;BME280;58763;47.982;11.516;2023-04-10T08:15:46;94705.19;;;7.94;54.38
71107;BME280;58763;47.982;11.516;2023-04-10T08:18:12;94699.59;;;7.68;54.94
71107;BME280;58763;47.982;11.516;2023-04-10T08:20:37;94703.88;;;7.64;56.16
71107;BME280;58763;47.982;11.516;2023-04-10T08:23:03;94696.22;;;7.83;57.09
71107;BME280;58763;47.982;11.516;2023-04-10T08:25:28;94704.25;;;8.10;55.01
71107;BME280;58763;47.982;11.516;2023-04-10T08:27:54;94703.56;;;8.24;55.63
71107;BME280;58763;47.982;11.516;2023-04-10T08:30:19;94700.72;;;8.83;57.22
71107;BME280;58763;47.982;11.516;2023-04-10T08:32:45;94698.44;;;9.07;55.40
71107;BME280;58763;47.982;11.516;2023-04-10T08:35:10;94701.53;;;9.50;53.64
71107;BME280;58763;47.982;11.516;2023-04-10T08:37:36;94699.19;;;9.79;53.11
71107;BME280;58763;47.982;11.516;2023-04-10T08:40:02;94704.06;;;9.97;53.90
71107;BME280;58763;47.982;11.516;2023-04-10T08:42:29;94698.13;;;10.10;50.06
71107;BME280;58763;47.982;11.516;2023-04-10T08:44:55;94694.34;;;10.06;49.25
71107;BME280;58763;47.982;11.516;2023-04-10T08:47:23;94693.75;;;9.69;49.21
71107;BME280;58763;47.982;11.516;2023-04-10T08:52:21;94701.34;;;9.82;50.87
71107;BME280;58763;47.982;11.516;2023-04-10T08:54:50;94695.66;;;9.84;51.52
71107;BME280;58763;47.982;11.516;2023-04-10T08:57:18;94692.97;;;9.79;52.23
71107;BME280;58763;47.982;11.516;2023-04-10T08:59:46;94698.63;;;9.72;51.20
71107;BME280;58763;47.982;11.516;2023-04-10T09:02:11;94693.22;;;9.72;51.37
71107;BME280;58763;47.982;11.516;2023-04-10T09:04:37;94693.78;;;9.79;50.20
71107;BME280;58763;47.982;11.516;2023-04-10T09:07:03;94690.78;;;9.81;51.39
71107;BME280;58763;47.982;11.516;2023-04-10T09:09:28;94691.91;;;9.85;51.26
71107;BME280;58763;47.982;11.516;2023-04-10T09:11:58;94697.31;;;10.10;50.75
71107;BME280;58763;47.982;11.516;2023-04-10T09:14:32;94687.09;;;10.17;48.96
71107;BME280;58763;47.982;11.516;2023-04-10T09:19:36;94685.19;;;10.32;49.40
71107;BME280;58763;47.982;11.516;2023-04-10T09:22:02;94682.22;;;10.29;46.42
71107;BME280;58763;47.982;11.516;2023-04-10T09:24:27;94688.97;;;10.26;45.83
71107;BME280;58763;47.982;11.516;2023-04-10T09:26:53;94682.22;;;10.24;47.25
71107;BME280;58763;47.982;11.516;2023-04-10T09:29:19;94678.66;;;10.38;47.65
71107;BME280;58763;47.982;11.516;2023-04-10T09:31:45;94677.03;;;10.53;46.84
71107;BME280;58763;47.982;11.516;2023-04-10T09:34:21;94675.72;;;10.50;46.83
71107;BME280;58763;47.982;11.516;2023-04-10T09:36:58;94676.22;;;10.62;46.64
71107;BME280;58763;47.982;11.516;2023-04-10T09:39:36;94669.13;;;10.81;48.17
71107;BME280;58763;47.982;11.516;2023-04-10T09:42:03;94658.28;;;11.01;47.31
71107;BME280;58763;47.982;11.516;2023-04-10T09:44:36;94656.81;;;11.24;46.69
71107;BME280;58763;47.982;11.516;2023-04-10T09:47:19;94657.06;;;11.28;44.23
71107;BME280;58763;47.982;11.516;2023-04-10T09:49:49;94653.00;;;11.25;45.26
71107;BME280;58763;47.982;11.516;2023-04-10T09:52:20;94653.47;;;11.42;45.46
71107;BME280;58763;47.982;11.516;2023-04-10T09:54:46;94655.84;;;11.54;46.68
71107;BME280;58763;47.982;11.516;2023-04-10T09:57:16;94644.66;;;11.65;42.35
71107;BME280;58763;47.982;11.516;2023-04-10T09:59:47;94648.41;;;11.79;44.28
71107;BME280;58763;47.982;11.516;2023-04-10T10:02:13;94652.09;;;11.94;44.71
71107;BME280;58763;47.982;11.516;2023-04-10T10:04:41;94634.56;;;12.15;44.71
71107;BME280;58763;47.982;11.516;2023-04-10T10:07:08;94630.81;;;12.39;45.77
71107;BME280;58763;47.982;11.516;2023-04-10T10:09:34;94629.66;;;12.51;44.35
71107;BME280;58763;47.982;11.516;2023-04-10T10:12:02;94630.03;;;12.63;42.65
71107;BME280;58763;47.982;11.516;2023-04-10T10:14:28;94624.41;;;12.59;43.37
71107;BME280;58763;47.982;11.516;2023-04-10T10:16:58;94620.38;;;12.80;43.20
71107;BME280;58763;47.982;11.516;2023-04-10T10:19:30;94612.75;;;12.82;43.79
71107;BME280;58763;47.982;11.516;2023-04-10T10:21:59;94616.78;;;12.85;43.32
71107;BME280;58763;47.982;11.516;2023-04-10T10:24:26;94617.88;;;12.60;42.07
71107;BME280;58763;47.982;11.516;2023-04-10T10:26:53;94612.69;;;12.87;43.76
71107;BME280;58763;47.982;11.516;2023-04-10T10:29:23;94608.44;;;13.00;42.67
71107;BME280;58763;47.982;11.516;2023-04-10T10:31:48;94607.28;;;13.11;41.02
71107;BME280;58763;47.982;11.516;2023-04-10T10:34:15;94607.81;;;13.32;41.02
71107;BME280;58763;47.982;11.516;2023-04-10T10:36:41;94590.97;;;13.53;41.73
71107;BME280;58763;47.982;11.516;2023-04-10T10:45:16;94592.56;;;13.36;40.70
71107;BME280;58763;47.982;11.516;2023-04-10T10:47:45;94597.03;;;13.64;40.85
71107;BME280;58763;47.982;11.516;2023-04-10T10:50:12;94588.81;;;13.88;40.75
71107;BME280;58763;47.982;11.516;2023-04-10T10:58:04;94571.03;;;13.95;39.70
71107;BME280;58763;47.982;11.516;2023-04-10T11:08:17;94560.78;;;14.38;38.64
71107;BME280;58763;47.982;11.516;2023-04-10T11:11:29;94556.66;;;14.40;37.73
71107;BME280;58763;47.982;11.516;2023-04-10T11:19:12;94543.91;;;14.82;36.91
71107;BME280;58763;47.982;11.516;2023-04-10T11:22:05;94543.19;;;14.63;37.48
71107;BME280;58763;47.982;11.516;2023-04-10T11:24:55;94540.72;;;14.47;34.52
71107;BME280;58763;47.982;11.516;2023-04-10T11:27:44;94538.25;;;14.65;34.92
71107;BME280;58763;47.982;11.516;2023-04-10T11:30:31;94531.38;;;14.81;35.82
71107;BME280;58763;47.982;11.516;2023-04-10T11:32:58;94531.56;;;14.84;33.67
71107;BME280;58763;47.982;11.516;2023-04-10T11:35:25;94526.03;;;14.89;33.49
71107;BME280;58763;47.982;11.516;2023-04-10T11:37:51;94525.22;;;15.02;33.78
71107;BME280;58763;47.982;11.516;2023-04-10T11:40:31;94525.22;;;15.02;33.16
71107;BME280;58763;47.982;11.516;2023-04-10T11:43:11;94519.28;;;14.60;33.96
71107;BME280;58763;47.982;11.516;2023-04-10T11:45:36;94511.94;;;14.60;34.33
71107;BME280;58763;47.982;11.516;2023-04-10T11:48:02;94506.00;;;14.44;33.48
71107;BME280;58763;47.982;11.516;2023-04-10T11:50:27;94515.47;;;14.61;34.50
71107;BME280;58763;47.982;11.516;2023-04-10T11:52:56;94502.34;;;14.90;36.30
71107;BME280;58763;47.982;11.516;2023-04-10T11:55:35;94503.50;;;15.11;33.71
71107;BME280;58763;47.982;11.516;2023-04-10T11:58:02;94499.97;;;15.10;33.07
71107;BME280;58763;47.982;11.516;2023-04-10T12:00:27;94493.34;;;15.39;34.16
71107;BME280;58763;47.982;11.516;2023-04-10T12:02:53;94491.84;;;15.46;34.74
71107;BME280;58763;47.982;11.516;2023-04-10T12:05:18;94491.13;;;15.41;33.25
71107;BME280;58763;47.982;11.516;2023-04-10T12:07:44;94498.41;;;15.45;32.78
71107;BME280;58763;47.982;11.516;2023-04-10T12:10:09;94491.47;;;15.61;33.41
71107;BME280;58763;47.982;11.516;2023-04-10T12:12:36;94491.94;;;15.41;33.41
71107;BME280;58763;47.982;11.516;2023-04-10T12:15:02;94486.16;;;15.56;34.11
71107;BME280;58763;47.982;11.516;2023-04-10T12:17:28;94490.00;;;15.55;31.71
71107;BME280;58763;47.982;11.516;2023-04-10T12:19:54;94494.03;;;15.58;33.37
71107;BME280;58763;47.982;11.516;2023-04-10T12:22:20;94488.88;;;15.78;33.12
71107;BME280;58763;47.982;11.516;2023-04-10T12:24:47;94486.53;;;15.85;34.08
71107;BME280;58763;47.982;11.516;2023-04-10T12:27:20;94479.16;;;15.86;31.93
71107;BME280;58763;47.982;11.516;2023-04-10T12:29:47;94487.38;;;15.95;33.08
71107;BME280;58763;47.982;11.516;2023-04-10T12:32:13;94480.94;;;15.90;33.24
71107;BME280;58763;47.982;11.516;2023-04-10T12:34:39;94483.56;;;15.96;31.60
71107;BME280;58763;47.982;11.516;2023-04-10T12:37:06;94476.31;;;15.91;32.23
71107;BME280;58763;47.982;11.516;2023-04-10T12:39:32;94478.59;;;15.98;32.53
71107;BME280;58763;47.982;11.516;2023-04-10T12:42:17;94471.78;;;15.64;32.86
71107;BME280;58763;47.982;11.516;2023-04-10T12:47:19;94462.63;;;16.13;32.53
71107;BME280;58763;47.982;11.516;2023-04-10T12:50:07;94467.50;;;16.25;30.63
71107;BME280;58763;47.982;11.516;2023-04-10T12:52:38;94470.94;;;16.08;30.69
71107;BME280;58763;47.982;11.516;2023-04-10T12:55:12;94467.19;;;15.96;30.26
71107;BME280;58763;47.982;11.516;2023-04-10T12:57:38;94466.75;;;16.02;31.03
71107;BME280;58763;47.982;11.516;2023-04-10T13:00:05;94458.34;;;16.21;30.59
71107;BME280;58763;47.982;11.516;2023-04-10T13:02:31;94454.00;;;16.20;30.78
71107;BME280;58763;47.982;11.516;2023-04-10T13:04:56;94457.53;;;16.51;32.50
71107;BME280;58763;47.982;11.516;2023-04-10T13:07:22;94456.66;;;16.81;31.68
71107;BME280;58763;47.982;11.516;2023-04-10T13:09:47;94450.59;;;17.01;31.25
71107;BME280;58763;47.982;11.516;2023-04-10T13:12:13;94455.75;;;17.11;29.99
71107;BME280;58763;47.982;11.516;2023-04-10T13:14:38;94450.31;;;17.20;31.10
71107;BME280;58763;47.982;11.516;2023-04-10T13:17:04;94448.56;;;17.33;31.44
71107;BME280;58763;47.982;11.516;2023-04-10T13:19:30;94442.78;;;17.43;32.14
71107;BME280;58763;47.982;11.516;2023-04-10T13:21:55;94453.53;;;17.22;31.07
71107;BME280;58763;47.982;11.516;2023-04-10T13:24:21;94427.34;;;17.38;31.28
71107;BME280;58763;47.982;11.516;2023-04-10T13:26:47;94429.56;;;17.02;30.39
71107;BME280;58763;47.982;11.516;2023-04-10T13:29:12;94433.09;;;17.11;30.99
71107;BME280;58763;47.982;11.516;2023-04-10T13:31:37;94422.59;;;16.70;29.74
71107;BME280;58763;47.982;11.516;2023-04-10T13:34:03;94421.84;;;16.87;30.12
71107;BME280;58763;47.982;11.516;2023-04-10T13:36:28;94423.31;;;17.10;30.50
71107;BME280;58763;47.982;11.516;2023-04-10T13:38:55;94412.19;;;17.06;31.44